Saint John, WA

3:22 AM PDT on August 02, 2014 (GMT -0700)
Fairchild Air Force Base (KSKA) Elev 2461 ft | 47.62 °N, 117.66 °W | Change Station

Current weather conditions updated 24 minutes ago

Clear
Clear
66 °F
Feels Like 66 °F
N
6
Wind Variable Wind from ENE

Today is forecast to be Warmer than yesterday.

Today
High -- | Low -- °F
--% Chance of Precip.
Yesterday
High -- | Low -- °F
Precip. -- in
5:30 AM 8:21 PM
Waxing Crescent, 34% visible
Pressure 29.95 in
Visibility 10.0 miles
Clouds Clear
Dew Point 48 °F
Humidity 51%
Rainfall 0.00 in
Snow Depth Not available.
UV 0 out of 12
Pollen 6.50 out of 12
Air Quality Not available.
Flu Activity Not available.
METAR KSKA 020958Z AUTO 07005KT 10SM CLR 19/09 A3000 RMK AO2 SLP142 T01900086

More Conditions Fewer Conditions

Pressure 29.95 in
Visibility 10.0 miles
Clouds Clear
Dew Point 48 °F
Humidity 51%
Rainfall 0.00 in
Snow Depth Not available.
UV 0 out of 12
Pollen 6.50 out of 12
Air Quality Not available.
Flu Activity Not available.
METAR KSKA 020958Z AUTO 07005KT 10SM CLR 19/09 A3000 RMK AO2 SLP142 T01900086

More Conditions Fewer Conditions

10-Day Weather Forecast

Almanac

Astronomy

Aug. 02, 2014 Rise Set
Actual Time 5:30 AM PDT 8:21 PM PDT
Civil Twilight 4:55 AM PDT 8:56 PM PDT
Nautical Twilight 4:10 AM PDT 9:41 PM PDT
Astronomical Twilight 3:16 AM PDT 10:35 PM PDT
Moon 12:25 PM PDT 11:13 PM PDT
Length of Visible Light 16h 01m
Length of Day
14h 50m
Tomorrow will be 2m 41s shorter.
Waxing Crescent, 34% of the Moon is Illuminated
Today
Waxing Crescent
Aug 3
First Quarter
Aug 10
Full
Aug 17
Last Quarter
Aug 25
New

Today's Extremes

State Highs State Lows

Community

WunderPhotos

Upload Photos

1,739,858 photos uploaded!

Nearby

Snow Depth

Station Depth Elevation
Quartz Peak 1 in 4700 ft
Spruce Springs 0 in 5700 ft
Bunchgrass Meadow 0 in 5000 ft
Moses Mountain 1 in 5300 ft
Sentinel Butte 0 in 4920 ft

Earthquake Activity

City Distance Mag. Time & Date
No recent earthquake activity has been reported nearby.
Minimum magnitude displayed is 2.5.

Coastal Water Temperatures

Place Temperature
No Stations Reporting

Nearby Weather Stations

Station Location Temp. Heat Index Dew Point Humidity Wind Precip. Elev Updated Type
Winona-Silk Stocking Road, Endicott, WA 68.7 °F - 48 °F 47% SE  at  0.0 mph 0.00 in / hr 1483 ft 3:21 AM PDT Rapid Fire
RAWS ESCURE WA, Benge, WA 77 °F 78 °F 44 °F 31% East  at  11 mph 0.00 in / hr 1740 ft 2:41 AM PDT MADIS
Garfield, WA 59.7 °F - 47 °F 63% NE  at  0.0 mph 0.00 in / hr 2520 ft 3:20 AM PDT Normal
RAWS CHENEY WA, Cheney, WA 70 °F - 48 °F 45% NNE  at  4 mph 0.00 in / hr 2229 ft 2:28 AM PDT MADIS
MesoWest CHENEY , Cheney, WA 70 °F - - - North  at  - 0.00 in / hr 2319 ft 1:10 AM PDT MADIS

Show More Stations Show Fewer Stations